Accueil
METAR-TAF:

METAR-TAF

Aéroports :

Coxyde, Belgique

Base aérienne de Coxyde

latitude: 51-05N, longitude: 002-39E, altitude: 4 m

Observation

Le bulletin a été fait il y a 21 minutes, à 16:03 UTC
Vent 7 kt de nord/nord-est
Température 17°C
Humidité 82%
Pression 1022 hPa
Visibilité: 4800 m

METAR: EBFN 261603Z AUTO 02007KT 4800 NCD 17/14 Q1022 GRN

Heure: 18:24 (16:24 UTC)

Prévision

Le bulletin a été fait il y a 4 heures et 43 minutes, à 11:41 UTC
Prévision valable du 26 à 13 UTC au 26 à 22 UTC
Vent 4 kt de est/nord-est
Visibilité: 8000 m
Quelques nuages à une hauteur de 3000 ft
Nuages épars à une hauteur de 12000 ft

TAF: EBFN 261141Z 2613/2622 07004KT 8000 FEW030 SCT120

Observations et prévisions météorologiques de plus de 4000 aéroports (messages METAR et TAF).

Les stations disponibles sont représentées par des disques jaunes et rouges sur la carte.

Passer la souris dessus pour voir le nom de la station.

Cliquer dessus pour voir les observations et prévisions météorologiques.

Pour changer de carte: cliquez sur les boutons verts avec une croix noire pour zoomer, sur le bouton vert avec un tiret pour effectuer un zoom arrière, ou sur les flèches vertes pour les cartes adjacentes.


METAR-TAF: